Etusivu
METAR-TAF:

METAR-TAF

Lentoasemat :

Eskişehir, Turkki

Leveyspiiri: 39-47N, Pituuspiiri: 030-34E, korkeus merenpinnasta: 785 m

METAR: puuttuu

Aika: 09:37 (06:37 UTC)

Sääennuste

Tämä raportti tehtiin 1 tunti ja 57 minuuttia sitten, kello 04.40 UTC
Ennuste voimassa 02. päivästä klo 06 UTC - 02. päivään klo 15 UTC
Tuuli 8 kn idästä
Näkyvyys 10 km tai enemmän
Hajanaisia pilviä 3500 ft:n korkeudessa
Hajonneita pilviä 10000 ft:n korkeudessa
Ajoittain
02. päivästä klo 11 UTC - 02. päivään klo 15 UTC
Tuuli 15 kn etelästä/lounaasta
Hajonneita pilviä 3000 ft:n korkeudessa
heikkoja vesikuuroja

TAF: LTBI 020440Z 0206/0215 10008KT 9999 SCT035 BKN100 TEMPO 0211/0215 20015KT -SHRA BKN030

Säähavainnot ja -ennusteet yli 4000 lentoasemalta (METAR- ja TAF-raportit).

Käytössä olevat sääasemat on merkitty karttaan keltaisilla ja punaisilla pisteillä.

Aseta hiiri pisteen päälle nähdäksesi sääaseman nimen.

Klikkaa sitten nähdäksesi säähavainnot ja -ennusteet.

Kartan vaihtaminen: klikkaa mustalla rastilla varustettuja vihreitä pisteitä, niin voit zoomata sisään; viivalla varustettua vihreää pistettä, niin voit zoomata ulos tai vihreitä nuolia, niin pääset viereisille kartoille.


METAR-TAF: